Hensel, ND

4:13 AM CST on December 04, 2016 (GMT -0600)
North Crystal | | Change Station

Elev 919 ft 48.62 °N, 97.71 °W | Updated 1 minute ago

Mist
Mist
33.9 °F
Feels Like 28 °F
N
7.0
Wind Variable Wind from SE
Gusts 12.0 mph

Today
High -- | Low -- °F
--% Chance of Precip.
Yesterday
High -- | Low -- °F
Precip. -- in
Pressure 29.75 in
Visibility 5.0 miles
Clouds
Windchill 28 °F
Dew Point 33 °F
Humidity 96%
Rainfall 0.00 in
Snow Depth Not available.
8:06 AM 4:35 PM
Waxing Crescent, 21% visible
METAR K2C8 040955Z AUTO 16009G14KT 5SM BR 00/00 A2975 RMK AO2
Pressure 29.75 in
Visibility 5.0 miles
Clouds
Windchill 28 °F
Dew Point 33 °F
Humidity 96%
Rainfall 0.00 in
Snow Depth Not available.
8:06 AM 4:35 PM
Waxing Crescent, 21% visible
METAR K2C8 040955Z AUTO 16009G14KT 5SM BR 00/00 A2975 RMK AO2

10-Day Weather Forecast

Almanac

Astronomy

Dec. 04, 2016 Rise Set
Actual Time
Civil Twilight
Nautical Twilight
Astronomical Twilight
Moon
Length of Visible Light
Length of Day
Tomorrow will be .
, % of the Moon is Illuminated

Today's Extremes

State Highs State Lows

Community

WunderPhotos

Upload Photos

1,955,591 photos uploaded!

WunderBlog® & News

Nearby

Air Quality

  Air Quality AQ Index Pollutant
Not available.

Snow Depth

Station Depth Elevation

Earthquake Activity

City Distance Mag. Time & Date
Minimum magnitude displayed is 2.5.

Coastal Water Temperatures

Place Temperature

Stations

Nearby Weather Stations

Station Location Temp. Windchill Dew Point Humidity Wind Precip. Elev Updated Type
                   

Watches & Warnings

There are currently no watches in effect.